Time;durP1;ratioP1;P1;durP2;ratioP2;P2;SDS_P1;SDS_P2;PMS_P1;PMS_P2;Temp;Humidity;BMP_temperature;BMP_pressure;BME280_temperature;BME280_humidity;BME280_pressure;Samples;Min_cycle;Max_cycle;Signal;HPM_P1;HPM_P2
2022/03/19 00:00:03;;;;;;;44.88;31.23;;;;;;;;;;5045092;28;20041;-59
2022/03/19 00:02:35;;;;;;;50.75;39.88;;;;;;;;;;5045568;28;20558;-59
2022/03/19 00:05:09;;;;;;;57.10;38.88;;;;;;;;;;5024610;28;20033;-59
2022/03/19 00:08:16;;;;;;;46.63;33.53;;;;;;;;;;5103759;28;20100;-59
2022/03/19 00:10:55;;;;;;;53.30;36.58;;;;;;;;;;5065309;28;20045;-59
2022/03/19 00:19:46;;;;;;;49.25;36.90;;;;;;;;;;5064865;28;20068;-59
2022/03/19 00:22:43;;;;;;;55.67;39.83;;;;;;;;;;5032662;28;20068;-59
2022/03/19 00:25:32;;;;;;;46.13;36.83;;;;;;;;;;5065242;28;20454;-59
2022/03/19 00:28:36;;;;;;;47.00;36.13;;;;;;;;;;5064870;28;20036;-59
2022/03/19 00:31:04;;;;;;;47.88;37.40;;;;;;;;;;5005456;28;20539;-59
2022/03/19 00:33:51;;;;;;;49.10;36.17;;;;;;;;;;5005703;28;20046;-59
2022/03/19 00:39:36;;;;;;;44.15;34.10;;;;;;;;;;4966545;29;20031;-59
2022/03/19 00:42:18;;;;;;;40.80;32.50;;;;;;;;;;4966750;29;20035;-59
2022/03/19 00:48:01;;;;;;;41.47;35.38;;;;;;;;;;5021596;28;20034;-60
2022/03/19 00:50:39;;;;;;;43.88;30.60;;;;;;;;;;5107515;28;20024;-59
2022/03/19 00:53:15;;;;;;;50.30;35.65;;;;;;;;;;5107335;28;20130;-59
2022/03/19 00:56:07;;;;;;;43.28;31.15;;;;;;;;;;5107998;28;20024;-59
2022/03/19 00:59:00;;;;;;;36.25;28.30;;;;;;;;;;5107691;28;20024;-59
2022/03/19 01:01:36;;;;;;;;;;;;;;;;;;;;;
2022/03/19 01:10:47;;;;;;;45.70;31.85;;;;;;;;;;5100420;28;20036;-59
2022/03/19 01:13:33;;;;;;;45.80;34.97;;;;;;;;;;5108624;28;20048;-59
2022/03/19 01:16:01;;;;;;;54.95;37.10;;;;;;;;;;5110450;28;20036;-59
2022/03/19 01:19:02;;;;;;;45.10;32.35;;;;;;;;;;5068555;28;20083;-59
2022/03/19 01:21:46;;;;;;;42.72;32.92;;;;;;;;;;5069530;28;20035;-59
2022/03/19 01:24:42;;;;;;;43.70;33.60;;;;;;;;;;5067930;28;20064;-59
2022/03/19 01:33:35;;;;;;;47.17;34.83;;;;;;;;;;4990025;28;20306;-59
2022/03/19 01:39:00;;;;;;;47.63;33.53;;;;;;;;;;4971249;28;20035;-59
2022/03/19 01:41:27;;;;;;;53.63;36.42;;;;;;;;;;4989543;28;20083;-59
2022/03/19 01:50:10;;;;;;;44.65;33.22;;;;;;;;;;4965154;29;20058;-59
2022/03/19 01:53:25;;;;;;;37.83;31.55;;;;;;;;;;4953516;29;20046;-59
2022/03/19 01:56:19;;;;;;;37.70;32.03;;;;;;;;;;4968790;28;20051;-59
2022/03/19 01:59:06;;;;;;;41.55;32.22;;;;;;;;;;4995308;28;20102;-59
2022/03/19 02:02:19;;;;;;;41.58;34.17;;;;;;;;;;5008375;28;20098;-59
2022/03/19 02:04:47;;;;;;;46.53;33.42;;;;;;;;;;5007321;28;20022;-59
2022/03/19 02:07:51;;;;;;;49.60;33.08;;;;;;;;;;5051607;28;20029;-59
2022/03/19 02:10:09;;;;;;;41.30;31.98;;;;;;;;;;5072794;28;20037;-59
2022/03/19 02:15:46;;;;;;;45.05;30.58;;;;;;;;;;5064817;28;20029;-59
2022/03/19 02:21:26;;;;;;;44.00;33.47;;;;;;;;;;5072266;28;20090;-59
2022/03/19 02:30:47;;;;;;;43.73;32.40;;;;;;;;;;5033291;28;20041;-59
2022/03/19 02:33:39;;;;;;;45.27;32.47;;;;;;;;;;5047186;28;20064;-59
2022/03/19 02:42:16;;;;;;;41.60;31.85;;;;;;;;;;5031488;28;20077;-59
2022/03/19 02:45:18;;;;;;;35.03;27.37;;;;;;;;;;5047019;28;20072;-59
2022/03/19 02:48:01;;;;;;;37.43;28.23;;;;;;;;;;5015406;28;20583;-59
2022/03/19 02:51:08;;;;;;;43.00;31.27;;;;;;;;;;5047139;28;20164;-59
2022/03/19 02:56:49;;;;;;;44.20;31.10;;;;;;;;;;4973152;28;20042;-59
2022/03/19 02:59:36;;;;;;;48.33;30.10;;;;;;;;;;5046933;28;20108;-59
2022/03/19 03:02:17;;;;;;;41.53;31.10;;;;;;;;;;4987963;28;20051;-59
2022/03/19 03:05:05;;;;;;;38.45;31.58;;;;;;;;;;4987267;28;20042;-59
2022/03/19 03:07:37;;;;;;;37.97;28.93;;;;;;;;;;5033452;28;20029;-59
2022/03/19 03:10:41;;;;;;;41.00;32.10;;;;;;;;;;5044685;28;20037;-59
2022/03/19 03:16:26;;;;;;;39.23;30.30;;;;;;;;;;5045929;28;20526;-59
2022/03/19 03:22:32;;;;;;;48.15;32.67;;;;;;;;;;5045917;28;20373;-59
2022/03/19 03:25:03;;;;;;;42.17;30.90;;;;;;;;;;5036155;28;20053;-59
2022/03/19 03:27:47;;;;;;;;;;;;;;;;;;5046273;28;20097;-59
2022/03/19 03:33:44;;;;;;;36.23;31.00;;;;;;;;;;5069723;28;20036;-59
2022/03/19 03:36:11;;;;;;;38.67;29.00;;;;;;;;;;5107635;28;20053;-59
2022/03/19 03:38:52;;;;;;;34.03;28.67;;;;;;;;;;5108314;28;20032;-59
2022/03/19 03:41:41;;;;;;;37.25;28.10;;;;;;;;;;5108430;28;20110;-59
2022/03/19 03:53:18;;;;;;;40.97;30.63;;;;;;;;;;5103616;28;20042;-59
2022/03/19 03:58:45;;;;;;;43.20;31.10;;;;;;;;;;5089681;28;20054;-59
2022/03/19 04:07:07;;;;;;;;;;;;;;;;;;;;;
2022/03/19 04:09:52;;;;;;;38.70;28.17;;;;;;;;;;5103275;28;20478;-59
2022/03/19 04:12:28;;;;;;;34.37;29.00;;;;;;;;;;5107171;28;20074;-59
2022/03/19 04:14:57;;;;;;;47.63;32.63;;;;;;;;;;5088215;28;20111;-59
2022/03/19 04:20:43;;;;;;;42.90;29.10;;;;;;;;;;5108112;28;20050;-59
2022/03/19 04:23:41;;;;;;;36.33;27.37;;;;;;;;;;5107573;28;20081;-59
2022/03/19 04:26:23;;;;;;;43.73;29.83;;;;;;;;;;5045401;28;20045;-59
2022/03/19 04:29:05;;;;;;;47.97;32.93;;;;;;;;;;5065356;28;20048;-59
2022/03/19 04:31:54;;;;;;;36.17;27.93;;;;;;;;;;5058754;28;20039;-59
2022/03/19 04:34:38;;;;;;;35.23;26.53;;;;;;;;;;5027959;28;20041;-59
2022/03/19 04:40:30;;;;;;;40.50;28.17;;;;;;;;;;5052380;28;20032;-59
2022/03/19 04:43:28;;;;;;;43.83;29.07;;;;;;;;;;5030132;28;20135;-58
2022/03/19 04:46:26;;;;;;;34.40;28.47;;;;;;;;;;5051673;28;20040;-58
2022/03/19 04:48:58;;;;;;;44.70;32.27;;;;;;;;;;5054739;28;20040;-58
2022/03/19 04:54:44;;;;;;;;;;;;;;;;;;;;;
2022/03/19 04:57:45;;;;;;;32.10;26.10;;;;;;;;;;5090635;28;20357;-58
2022/03/19 05:00:47;;;;;;;32.53;26.88;;;;;;;;;;5075938;28;20044;-58
2022/03/19 05:06:52;;;;;;;36.80;27.90;;;;;;;;;;5060529;28;20039;-58
2022/03/19 05:12:39;;;;;;;37.97;24.93;;;;;;;;;;5093297;28;20116;-58
2022/03/19 05:18:01;;;;;;;43.53;28.53;;;;;;;;;;5093268;28;20111;-58
2022/03/19 05:20:56;;;;;;;41.27;30.70;;;;;;;;;;5093003;28;20110;-58
2022/03/19 05:23:54;;;;;;;35.43;24.27;;;;;;;;;;5092263;28;20389;-58
2022/03/19 05:26:35;;;;;;;39.67;29.17;;;;;;;;;;5088661;28;20067;-58
2022/03/19 05:29:23;;;;;;;33.40;26.98;;;;;;;;;;5076354;28;20201;-58
2022/03/19 05:31:58;;;;;;;34.80;26.70;;;;;;;;;;5092756;28;20032;-58
2022/03/19 05:35:02;;;;;;;32.57;28.43;;;;;;;;;;5073667;28;20036;-58
2022/03/19 05:37:59;;;;;;;33.63;25.63;;;;;;;;;;5058331;28;20047;-59
2022/03/19 05:40:31;;;;;;;41.40;24.87;;;;;;;;;;5092817;28;20072;-58
2022/03/19 05:43:15;;;;;;;31.27;26.13;;;;;;;;;;5091991;28;20477;-59
2022/03/19 05:45:58;;;;;;;39.20;28.63;;;;;;;;;;5093422;28;20024;-58
2022/03/19 05:48:36;;;;;;;36.20;27.70;;;;;;;;;;5093968;28;20393;-58
2022/03/19 05:51:13;;;;;;;37.27;27.23;;;;;;;;;;5095817;28;20441;-58
2022/03/19 05:53:51;;;;;;;38.03;26.30;;;;;;;;;;5094867;28;20086;-58
2022/03/19 06:02:57;;;;;;;32.87;24.63;;;;;;;;;;5033833;28;20030;-58
2022/03/19 06:05:32;;;;;;;33.23;25.63;;;;;;;;;;5034172;28;20124;-58
2022/03/19 06:08:24;;;;;;;35.87;26.40;;;;;;;;;;5034079;28;20037;-58
2022/03/19 06:10:59;;;;;;;32.70;26.25;;;;;;;;;;5062423;28;20501;-61
2022/03/19 06:13:56;;;;;;;37.47;27.70;;;;;;;;;;5096659;28;20020;-58
2022/03/19 06:19:31;;;;;;;33.77;25.67;;;;;;;;;;5076308;28;20024;-58
2022/03/19 06:22:53;;;;;;;30.17;26.77;;;;;;;;;;5096889;28;20050;-58
2022/03/19 06:25:27;;;;;;;39.63;27.43;;;;;;;;;;5090568;28;20028;-58
2022/03/19 06:28:22;;;;;;;37.23;25.87;;;;;;;;;;5095967;28;20044;-58
2022/03/19 06:31:13;;;;;;;;;;;;;;;;;;;;;
2022/03/19 06:39:55;;;;;;;37.97;26.37;;;;;;;;;;5096043;28;20031;-58
2022/03/19 06:42:45;;;;;;;36.90;25.57;;;;;;;;;;5074047;28;20032;-58
2022/03/19 06:45:26;;;;;;;36.00;27.25;;;;;;;;;;5078081;28;20059;-58
2022/03/19 06:48:30;;;;;;;33.33;25.10;;;;;;;;;;5053486;28;20475;-58
2022/03/19 06:51:28;;;;;;;34.72;25.20;;;;;;;;;;5053739;28;20029;-58
2022/03/19 06:53:58;;;;;;;35.97;27.17;;;;;;;;;;5032734;28;20029;-59
2022/03/19 06:56:42;;;;;;;42.15;25.00;;;;;;;;;;5053376;28;20021;-58
2022/03/19 07:05:01;;;;;;;32.28;25.70;;;;;;;;;;5046206;28;20040;-58
2022/03/19 07:10:51;;;;;;;35.88;26.52;;;;;;;;;;5033521;28;20045;-61
2022/03/19 07:13:45;;;;;;;30.10;25.70;;;;;;;;;;5029235;28;20559;-59
2022/03/19 07:16:52;;;;;;;;;;;;;;;;;;;;;
2022/03/19 07:19:58;;;;;;;31.20;24.08;;;;;;;;;;5059460;28;20492;-58
2022/03/19 07:22:51;;;;;;;;;;;;;;;;;;;;;
2022/03/19 07:25:24;;;;;;;36.17;27.38;;;;;;;;;;5034530;28;20418;-58
2022/03/19 07:28:09;;;;;;;30.45;20.00;;;;;;;;;;5054180;28;20097;-58
2022/03/19 07:39:20;;;;;;;35.05;25.60;;;;;;;;;;5103239;28;20078;-58
2022/03/19 07:45:02;;;;;;;24.70;21.03;;;;;;;;;;5108307;28;20032;-59
2022/03/19 07:50:59;;;;;;;;;;;;;;;;;;;;;
2022/03/19 07:53:47;;;;;;;26.67;21.38;;;;;;;;;;5039369;28;20054;-59
2022/03/19 07:56:51;;;;;;;;;;;;;;;;;;;;;
2022/03/19 07:59:37;;;;;;;20.33;16.88;;;;;;;;;;5104478;28;20449;-59
2022/03/19 08:02:33;;;;;;;30.42;20.13;;;;;;;;;;5107603;28;20028;-59
2022/03/19 08:05:12;;;;;;;29.55;21.20;;;;;;;;;;5107972;28;20670;-59
2022/03/19 08:10:52;;;;;;;34.03;22.13;;;;;;;;;;5025411;28;20034;-59
2022/03/19 08:13:29;;;;;;;24.27;20.38;;;;;;;;;;5025379;28;20046;-59
2022/03/19 08:16:11;;;;;;;20.15;16.40;;;;;;;;;;5025725;28;20022;-59
2022/03/19 08:19:25;;;;;;;27.90;20.20;;;;;;;;;;5024854;28;20045;-59
2022/03/19 08:28:09;;;;;;;25.30;19.20;;;;;;;;;;5092493;28;20052;-59
2022/03/19 08:33:46;;;;;;;;;;;;;;;;;;;;;
2022/03/19 08:45:15;;;;;;;16.55;13.52;;;;;;;;;;5093549;28;20065;-59
2022/03/19 08:48:01;;;;;;;25.45;15.90;;;;;;;;;;5094467;28;20020;-59
2022/03/19 08:54:05;;;;;;;23.77;17.02;;;;;;;;;;5051052;28;20052;-59
2022/03/19 08:56:43;;;;;;;25.88;18.02;;;;;;;;;;5075249;28;20028;-59
2022/03/19 09:05:55;;;;;;;22.70;16.55;;;;;;;;;;5093160;28;20036;-59
2022/03/19 09:08:46;;;;;;;21.50;17.25;;;;;;;;;;5093366;28;20028;-58
2022/03/19 09:17:46;;;;;;;25.58;19.65;;;;;;;;;;5093217;28;20035;-58
2022/03/19 09:20:41;;;;;;;22.00;17.05;;;;;;;;;;5094023;28;20051;-58
2022/03/19 09:23:23;;;;;;;21.02;18.10;;;;;;;;;;5093715;28;20029;-58
2022/03/19 09:26:22;;;;;;;22.27;18.13;;;;;;;;;;5094744;28;20024;-58
2022/03/19 09:29:06;;;;;;;22.70;18.20;;;;;;;;;;5071467;28;20506;-59
2022/03/19 09:35:11;;;;;;;22.42;18.25;;;;;;;;;;5074743;28;20086;-59
2022/03/19 09:37:51;;;;;;;15.57;13.98;;;;;;;;;;5077000;28;20390;-58
2022/03/19 09:40:48;;;;;;;29.60;21.50;;;;;;;;;;5077620;28;20048;-58
2022/03/19 09:43:56;;;;;;;28.48;20.23;;;;;;;;;;5076283;28;20467;-58
2022/03/19 09:49:51;;;;;;;26.00;18.02;;;;;;;;;;4975654;28;20130;-58
2022/03/19 09:52:43;;;;;;;20.38;17.08;;;;;;;;;;4975577;28;20405;-58
2022/03/19 09:55:20;;;;;;;26.63;19.98;;;;;;;;;;5001574;28;20501;-58
2022/03/19 09:58:15;;;;;;;20.05;17.95;;;;;;;;;;5058796;28;20029;-58
2022/03/19 10:01:01;;;;;;;;;;;;;;;;;;;;;
2022/03/19 10:03:36;;;;;;;31.10;21.25;;;;;;;;;;5032060;28;20033;-58
2022/03/19 10:12:41;;;;;;;21.85;17.50;;;;;;;;;;4975206;28;20571;-59
2022/03/19 10:15:15;;;;;;;23.67;17.10;;;;;;;;;;4997832;28;20085;-59
2022/03/19 10:18:02;;;;;;;22.27;17.20;;;;;;;;;;5033172;28;20041;-60
2022/03/19 10:20:53;;;;;;;23.73;17.67;;;;;;;;;;5031956;28;20037;-59
2022/03/19 10:23:42;;;;;;;25.27;19.55;;;;;;;;;;5033191;28;20021;-58
2022/03/19 10:26:33;;;;;;;24.17;19.33;;;;;;;;;;5066872;28;20049;-58
2022/03/19 10:29:22;;;;;;;26.85;20.60;;;;;;;;;;5093379;28;20059;-57
2022/03/19 10:32:03;;;;;;;26.88;21.40;;;;;;;;;;5098930;28;20139;-58
2022/03/19 10:34:41;;;;;;;;;;;;;;;;;;5097600;28;20549;-57
2022/03/19 10:43:27;;;;;;;25.40;19.85;;;;;;;;;;5096003;28;20077;-57
2022/03/19 10:46:11;;;;;;;26.63;20.23;;;;;;;;;;5095627;28;20031;-57
2022/03/19 10:48:59;;;;;;;36.22;22.48;;;;;;;;;;5096027;28;20107;-57
2022/03/19 10:51:58;;;;;;;27.73;20.50;;;;;;;;;;5095350;28;20386;-57
2022/03/19 10:58:16;;;;;;;30.85;21.55;;;;;;;;;;5086920;28;20039;-58
2022/03/19 11:07:02;;;;;;;34.67;24.23;;;;;;;;;;5039813;28;20029;-58
2022/03/19 11:13:03;;;;;;;34.22;24.63;;;;;;;;;;5081267;28;20044;-58
2022/03/19 11:15:49;;;;;;;;;;;;;;;;;;;;;
2022/03/19 11:18:50;;;;;;;26.85;22.23;;;;;;;;;;5082935;28;20499;-58
2022/03/19 11:21:32;;;;;;;26.83;21.52;;;;;;;;;;5051824;28;20393;-58
2022/03/19 11:27:34;;;;;;;29.27;18.30;;;;;;;;;;5094305;28;20493;-58
2022/03/19 11:33:40;;;;;;;18.65;14.90;;;;;;;;;;5033348;28;20094;-58
2022/03/19 11:36:07;;;;;;;;;;;;;;;;;;5094017;28;20031;-58
2022/03/19 11:39:10;;;;;;;19.13;13.43;;;;;;;;;;5072753;28;20225;-58
2022/03/19 11:45:00;;;;;;;12.07;9.05;;;;;;;;;;5080636;28;20032;-58
2022/03/19 11:50:57;;;;;;;12.45;9.48;;;;;;;;;;5094165;28;20070;-58
2022/03/19 11:56:53;;;;;;;11.35;7.20;;;;;;;;;;5093855;28;20206;-58
2022/03/19 11:59:58;;;;;;;14.77;10.83;;;;;;;;;;5076990;28;20085;-58
2022/03/19 12:03:10;;;;;;;;;;;;;;;;;;;;;
2022/03/19 12:05:51;;;;;;;13.63;10.63;;;;;;;;;;5094668;28;20083;-58
2022/03/19 12:09:01;;;;;;;14.20;10.18;;;;;;;;;;5095056;28;20489;-58
2022/03/19 12:11:53;;;;;;;15.82;11.55;;;;;;;;;;5052066;28;20494;-58
2022/03/19 12:17:47;;;;;;;15.38;10.52;;;;;;;;;;5020745;28;20034;-58
2022/03/19 12:23:57;;;;;;;13.38;8.52;;;;;;;;;;5011043;28;20112;-58
2022/03/19 12:27:20;;;;;;;13.30;10.00;;;;;;;;;;5012164;28;20028;-58
2022/03/19 12:29:47;;;;;;;12.98;9.50;;;;;;;;;;4953171;28;20564;-60
2022/03/19 12:32:49;;;;;;;;;;;;;;;;;;;;;
2022/03/19 12:35:43;;;;;;;10.95;7.35;;;;;;;;;;5051542;28;20120;-58
2022/03/19 12:38:48;;;;;;;9.77;7.40;;;;;;;;;;5072793;28;20037;-58
2022/03/19 12:41:27;;;;;;;13.05;8.30;;;;;;;;;;5061022;28;20467;-58
2022/03/19 12:44:36;;;;;;;7.85;6.32;;;;;;;;;;5074457;28;20032;-58
2022/03/19 12:47:20;;;;;;;13.43;9.07;;;;;;;;;;5056172;28;20035;-60
2022/03/19 12:53:27;;;;;;;8.93;7.47;;;;;;;;;;5035188;28;20032;-58
2022/03/19 12:59:15;;;;;;;12.30;7.90;;;;;;;;;;5074078;28;20062;-58
2022/03/19 13:04:52;;;;;;;7.57;5.93;;;;;;;;;;5077049;28;20107;-58
2022/03/19 13:10:52;;;;;;;;;;;;;;;;;;;;;
2022/03/19 13:16:48;;;;;;;;;;;;;;;;;;;;;
2022/03/19 13:19:14;;;;;;;8.07;7.03;;;;;;;;;;5069584;28;19936;-58
2022/03/19 13:22:23;;;;;;;8.50;6.47;;;;;;;;;;5061200;28;20090;-58
2022/03/19 13:25:02;;;;;;;19.10;9.10;;;;;;;;;;5074364;28;20119;-58
2022/03/19 13:27:37;;;;;;;12.07;7.32;;;;;;;;;;5054853;28;20120;-58
2022/03/19 13:30:44;;;;;;;;;;;;;;;;;;;;;
2022/03/19 13:33:15;;;;;;;9.68;6.03;;;;;;;;;;5074484;28;20423;-58
2022/03/19 13:35:52;;;;;;;;;;;;;;;;;;5057600;28;20037;-58
2022/03/19 13:38:27;;;;;;;9.32;6.78;;;;;;;;;;5074801;28;20365;-58
2022/03/19 13:41:24;;;;;;;11.88;6.55;;;;;;;;;;5074250;28;20481;-58
2022/03/19 13:47:20;;;;;;;6.35;4.88;;;;;;;;;;5072983;28;20036;-58
2022/03/19 13:49:59;;;;;;;9.95;7.18;;;;;;;;;;5052725;28;20474;-58
2022/03/19 13:52:40;;;;;;;8.80;5.05;;;;;;;;;;5058234;28;20044;-58
2022/03/19 13:55:38;;;;;;;6.80;4.93;;;;;;;;;;5071751;28;20052;-59
2022/03/19 13:58:17;;;;;;;7.32;3.92;;;;;;;;;;5081559;28;20032;-59
2022/03/19 14:01:11;;;;;;;8.25;4.80;;;;;;;;;;5080399;28;20024;-58
2022/03/19 14:03:51;;;;;;;6.15;4.22;;;;;;;;;;5096788;28;20111;-58
2022/03/19 14:06:31;;;;;;;8.00;5.22;;;;;;;;;;5078907;28;20204;-58
2022/03/19 14:09:23;;;;;;;8.75;4.70;;;;;;;;;;5078499;28;20028;-59
2022/03/19 14:12:10;;;;;;;7.28;5.05;;;;;;;;;;5047206;28;20477;-58
2022/03/19 14:14:51;;;;;;;7.10;5.35;;;;;;;;;;5095959;28;20064;-58
2022/03/19 14:20:44;;;;;;;5.80;3.95;;;;;;;;;;5034480;28;20358;-59
2022/03/19 14:23:39;;;;;;;;;;;;;;;;;;;;;
2022/03/19 14:29:40;;;;;;;3.55;2.85;;;;;;;;;;4998778;28;20430;-59
2022/03/19 14:32:25;;;;;;;6.82;3.67;;;;;;;;;;5015229;28;20072;-59
2022/03/19 14:35:27;;;;;;;4.82;3.70;;;;;;;;;;5034095;28;20061;-58
2022/03/19 14:38:25;;;;;;;7.90;3.72;;;;;;;;;;5019321;28;20037;-58
2022/03/19 14:40:54;;;;;;;5.38;3.10;;;;;;;;;;5017084;28;20503;-58
2022/03/19 14:43:23;;;;;;;6.00;3.47;;;;;;;;;;5033982;28;20144;-58
2022/03/19 14:46:18;;;;;;;6.13;3.88;;;;;;;;;;5033685;28;20036;-58
2022/03/19 14:49:20;;;;;;;6.30;3.83;;;;;;;;;;5054978;28;20506;-59
2022/03/19 14:52:16;;;;;;;5.93;3.47;;;;;;;;;;5076643;28;20036;-58
2022/03/19 14:54:57;;;;;;;5.80;3.90;;;;;;;;;;5040929;28;20093;-59
2022/03/19 14:57:53;;;;;;;4.72;3.22;;;;;;;;;;5075953;28;20021;-59
2022/03/19 15:03:20;;;;;;;5.68;3.20;;;;;;;;;;5059654;28;20033;-58
2022/03/19 15:09:14;;;;;;;5.10;2.63;;;;;;;;;;5079382;28;20095;-58
2022/03/19 15:11:53;;;;;;;3.45;2.83;;;;;;;;;;5074614;28;20039;-59
2022/03/19 15:23:40;;;;;;;4.05;2.88;;;;;;;;;;5035115;28;20209;-59
2022/03/19 15:29:16;;;;;;;4.35;2.42;;;;;;;;;;5074587;28;20424;-59
2022/03/19 15:32:04;;;;;;;5.60;2.95;;;;;;;;;;5075067;28;20342;-58
2022/03/19 15:35:00;;;;;;;4.13;2.65;;;;;;;;;;5093798;28;20050;-58
2022/03/19 15:43:57;;;;;;;3.88;3.03;;;;;;;;;;5091216;28;20024;-59
2022/03/19 15:46:41;;;;;;;6.65;3.70;;;;;;;;;;5094341;28;20458;-58
2022/03/19 15:49:22;;;;;;;;;;;;;;;;;;;;;
2022/03/19 15:52:00;;;;;;;14.27;4.03;;;;;;;;;;5077613;28;20035;-58
2022/03/19 15:57:56;;;;;;;;;;;;;;;;;;;;;
2022/03/19 16:00:28;;;;;;;8.52;3.88;;;;;;;;;;5086064;28;20084;-58
2022/03/19 16:03:10;;;;;;;6.80;4.28;;;;;;;;;;5078082;28;20513;-58
2022/03/19 16:08:53;;;;;;;5.05;2.75;;;;;;;;;;5094602;28;20385;-58
2022/03/19 16:11:46;;;;;;;7.38;4.15;;;;;;;;;;5058220;28;20549;-58
2022/03/19 16:14:40;;;;;;;6.15;3.90;;;;;;;;;;5094169;28;20100;-58
2022/03/19 16:20:42;;;;;;;3.90;2.92;;;;;;;;;;5059505;28;20031;-59
2022/03/19 16:23:25;;;;;;;8.13;4.20;;;;;;;;;;5093918;28;20033;-58
2022/03/19 16:26:02;;;;;;;4.57;3.38;;;;;;;;;;5076363;28;20032;-58
2022/03/19 16:28:50;;;;;;;8.05;3.55;;;;;;;;;;5091530;28;20084;-59
2022/03/19 16:31:50;;;;;;;6.90;3.72;;;;;;;;;;5093554;28;20092;-58
2022/03/19 16:34:35;;;;;;;4.78;3.03;;;;;;;;;;5094073;28;20044;-58
2022/03/19 16:40:24;;;;;;;6.90;4.35;;;;;;;;;;5075585;28;20028;-58
2022/03/19 16:42:53;;;;;;;5.93;4.10;;;;;;;;;;5074346;28;20036;-59
2022/03/19 16:45:44;;;;;;;;;;;;;;;;;;;;;
2022/03/19 16:48:25;;;;;;;4.50;2.85;;;;;;;;;;5089635;28;20107;-58
2022/03/19 16:54:17;;;;;;;5.43;3.45;;;;;;;;;;5011651;28;20109;-59
2022/03/19 16:57:00;;;;;;;5.10;2.55;;;;;;;;;;5011247;28;20026;-58
2022/03/19 16:59:34;;;;;;;6.50;3.58;;;;;;;;;;4999833;28;20509;-58
2022/03/19 17:08:34;;;;;;;;;;;;;;;;;;;;;
2022/03/19 17:14:05;;;;;;;6.53;4.50;;;;;;;;;;5045104;28;19942;-58
2022/03/19 17:16:50;;;;;;;6.28;4.57;;;;;;;;;;5051934;28;20104;-58
2022/03/19 17:20:06;;;;;;;7.15;4.97;;;;;;;;;;5051274;28;20087;-58
2022/03/19 17:22:38;;;;;;;8.90;5.40;;;;;;;;;;5047303;28;20491;-58
2022/03/19 17:28:38;;;;;;;9.27;6.45;;;;;;;;;;5048371;28;20036;-59
2022/03/19 17:31:12;;;;;;;10.95;7.38;;;;;;;;;;5050878;28;20044;-58
2022/03/19 17:33:53;;;;;;;11.55;7.00;;;;;;;;;;5083375;28;20375;-58
2022/03/19 17:36:41;;;;;;;10.80;6.93;;;;;;;;;;5092877;28;20039;-59
2022/03/19 17:39:41;;;;;;;10.52;6.93;;;;;;;;;;5092207;28;20024;-58
2022/03/19 17:42:35;;;;;;;;;;;;;;;;;;;;;
2022/03/19 17:51:40;;;;;;;7.85;6.70;;;;;;;;;;5096298;28;20468;-58
2022/03/19 17:57:51;;;;;;;;;;;;;;;;;;;;;
2022/03/19 18:00:31;;;;;;;14.25;8.65;;;;;;;;;;5014503;28;20398;-58
2022/03/19 18:03:26;;;;;;;11.15;8.07;;;;;;;;;;5014320;28;20033;-58
2022/03/19 18:06:18;;;;;;;13.38;9.60;;;;;;;;;;5006262;28;20041;-58
2022/03/19 18:08:46;;;;;;;8.82;7.63;;;;;;;;;;5014715;28;20040;-59
2022/03/19 18:11:54;;;;;;;;;;;;;;;;;;;;;
2022/03/19 18:15:07;;;;;;;13.38;8.57;;;;;;;;;;5010078;28;20042;-59
2022/03/19 18:17:44;;;;;;;15.60;9.93;;;;;;;;;;4988158;28;20480;-59
2022/03/19 18:20:25;;;;;;;10.02;9.02;;;;;;;;;;5014492;28;20515;-59
2022/03/19 18:22:55;;;;;;;;;;;;;;;;;;5014651;28;20418;-59
2022/03/19 18:28:18;;;;;;;13.85;8.70;;;;;;;;;;5058604;28;20057;-59
2022/03/19 18:34:17;;;;;;;11.55;8.70;;;;;;;;;;5062587;28;20124;-59
2022/03/19 18:37:06;;;;;;;11.40;8.68;;;;;;;;;;5092778;28;20036;-63
2022/03/19 18:39:57;;;;;;;14.50;10.07;;;;;;;;;;5095489;28;20109;-59
2022/03/19 18:42:35;;;;;;;13.23;10.60;;;;;;;;;;5096267;28;20028;-59
2022/03/19 18:45:23;;;;;;;14.05;10.25;;;;;;;;;;5072137;28;20039;-59
2022/03/19 18:50:54;;;;;;;13.20;9.95;;;;;;;;;;5096099;28;20039;-59
2022/03/19 18:59:36;;;;;;;13.57;10.07;;;;;;;;;;5096098;28;20051;-59
2022/03/19 19:02:14;;;;;;;11.33;9.77;;;;;;;;;;5073459;28;20092;-59
2022/03/19 19:04:55;;;;;;;15.32;9.60;;;;;;;;;;5056094;28;20112;-59
2022/03/19 19:14:03;;;;;;;15.40;10.32;;;;;;;;;;5036532;28;20033;-59
2022/03/19 19:19:31;;;;;;;12.00;9.95;;;;;;;;;;5069405;28;20032;-59
2022/03/19 19:22:35;;;;;;;16.90;11.60;;;;;;;;;;5073591;28;20094;-59
2022/03/19 19:25:31;;;;;;;17.83;9.85;;;;;;;;;;5071865;28;20052;-59
2022/03/19 19:28:14;;;;;;;12.82;10.73;;;;;;;;;;5061402;28;20510;-59
2022/03/19 19:31:12;;;;;;;13.85;9.88;;;;;;;;;;5054942;28;20063;-59
2022/03/19 19:33:52;;;;;;;14.10;11.30;;;;;;;;;;5032511;28;20154;-59
2022/03/19 19:36:40;;;;;;;15.32;11.23;;;;;;;;;;5095274;28;20028;-59
2022/03/19 19:45:31;;;;;;;;;;;;;;;;;;;;;
2022/03/19 19:48:32;;;;;;;16.77;11.65;;;;;;;;;;4970602;28;20125;-59
2022/03/19 19:51:10;;;;;;;;;;;;;;;;;;5082851;28;20044;-59
2022/03/19 20:00:09;;;;;;;17.60;11.98;;;;;;;;;;5054642;28;20039;-59
2022/03/19 20:02:53;;;;;;;18.13;12.07;;;;;;;;;;5094627;28;20027;-59
2022/03/19 20:05:32;;;;;;;18.02;12.80;;;;;;;;;;5076479;28;20039;-59
2022/03/19 20:08:11;;;;;;;17.23;12.88;;;;;;;;;;5075489;28;20061;-59
2022/03/19 20:10:53;;;;;;;16.13;11.93;;;;;;;;;;5092626;28;20048;-59
2022/03/19 20:13:42;;;;;;;15.17;12.80;;;;;;;;;;5075461;28;20028;-59
2022/03/19 20:19:14;;;;;;;20.45;13.32;;;;;;;;;;5083115;28;20036;-59
2022/03/19 20:22:01;;;;;;;13.13;10.87;;;;;;;;;;5093743;28;20032;-59
2022/03/19 20:28:03;;;;;;;;;;;;;;;;;;;;;
2022/03/19 20:30:52;;;;;;;15.87;13.30;;;;;;;;;;5093213;28;20373;-59
2022/03/19 20:33:49;;;;;;;17.10;12.90;;;;;;;;;;5087014;28;20059;-59
2022/03/19 20:36:51;;;;;;;;;;;;;;;;;;;;;
2022/03/19 20:42:48;;;;;;;14.48;12.82;;;;;;;;;;5051186;28;20044;-59
2022/03/19 20:45:30;;;;;;;15.90;12.23;;;;;;;;;;5034207;28;20090;-59
2022/03/19 20:51:00;;;;;;;22.88;14.18;;;;;;;;;;5054194;28;20042;-59
2022/03/19 20:53:47;;;;;;;16.20;13.23;;;;;;;;;;5093210;28;20514;-59
2022/03/19 20:59:44;;;;;;;18.55;14.38;;;;;;;;;;5011235;28;20121;-59
2022/03/19 21:02:27;;;;;;;18.57;14.37;;;;;;;;;;5081762;28;20067;-59
2022/03/19 21:05:27;;;;;;;21.53;15.77;;;;;;;;;;5093737;28;20028;-59
2022/03/19 21:20:16;;;;;;;25.43;16.03;;;;;;;;;;5011020;28;20030;-59
2022/03/19 21:23:11;;;;;;;20.07;14.90;;;;;;;;;;5057351;28;20499;-59
2022/03/19 21:25:57;;;;;;;16.43;14.67;;;;;;;;;;5055925;28;20032;-59
2022/03/19 21:28:32;;;;;;;18.37;13.00;;;;;;;;;;5086985;28;20034;-59
2022/03/19 21:31:13;;;;;;;16.30;13.67;;;;;;;;;;5078754;28;20089;-59
2022/03/19 21:33:49;;;;;;;15.70;13.20;;;;;;;;;;5097517;28;20100;-59
2022/03/19 21:36:42;;;;;;;18.70;15.20;;;;;;;;;;5098448;28;20103;-59
2022/03/19 21:42:08;;;;;;;18.67;14.30;;;;;;;;;;5098278;28;20097;-59
2022/03/19 21:47:52;;;;;;;16.93;13.27;;;;;;;;;;5097873;28;19966;-59
2022/03/19 21:50:32;;;;;;;18.57;14.30;;;;;;;;;;5089463;28;20047;-59
2022/03/19 21:53:22;;;;;;;17.20;14.05;;;;;;;;;;5079324;28;20504;-59
2022/03/19 21:56:04;;;;;;;16.77;12.83;;;;;;;;;;5068594;28;20040;-59
2022/03/19 21:58:41;;;;;;;17.20;13.20;;;;;;;;;;5097897;28;20113;-59
2022/03/19 22:01:19;;;;;;;21.83;14.03;;;;;;;;;;5062393;28;20056;-59
2022/03/19 22:04:16;;;;;;;16.60;13.80;;;;;;;;;;5089470;28;20032;-59
2022/03/19 22:10:24;;;;;;;23.60;14.37;;;;;;;;;;5069828;28;20119;-59
2022/03/19 22:13:31;;;;;;;17.95;13.50;;;;;;;;;;5089180;28;20036;-59
2022/03/19 22:16:03;;;;;;;17.73;14.13;;;;;;;;;;5071413;28;20064;-59
2022/03/19 22:18:56;;;;;;;20.73;14.23;;;;;;;;;;5071993;28;20052;-59
2022/03/19 22:21:39;;;;;;;17.83;13.60;;;;;;;;;;5071386;28;20070;-59
2022/03/19 22:27:29;;;;;;;16.53;13.43;;;;;;;;;;5078195;28;20032;-59
2022/03/19 22:36:04;;;;;;;15.77;11.60;;;;;;;;;;5066662;28;20045;-59
2022/03/19 22:38:39;;;;;;;16.03;13.17;;;;;;;;;;5090549;28;20185;-59
2022/03/19 22:41:25;;;;;;;;;;;;;;;;;;;;;
2022/03/19 22:44:17;;;;;;;19.63;14.57;;;;;;;;;;5090157;28;20419;-59
2022/03/19 22:47:05;;;;;;;17.83;13.67;;;;;;;;;;5090395;28;20024;-59
2022/03/19 22:49:54;;;;;;;17.43;12.47;;;;;;;;;;5088430;28;20033;-59
2022/03/19 22:55:22;;;;;;;15.23;12.27;;;;;;;;;;5027956;28;20054;-59
2022/03/19 23:01:07;;;;;;;18.60;12.67;;;;;;;;;;5089857;28;20387;-59
2022/03/19 23:04:18;;;;;;;18.10;12.83;;;;;;;;;;5089973;28;20021;-59
2022/03/19 23:07:04;;;;;;;16.47;11.90;;;;;;;;;;5028039;28;20093;-59
2022/03/19 23:10:02;;;;;;;18.77;12.87;;;;;;;;;;5028034;28;20038;-59
2022/03/19 23:18:44;;;;;;;19.70;12.57;;;;;;;;;;5027908;28;20064;-59
2022/03/19 23:21:32;;;;;;;23.90;13.70;;;;;;;;;;5027673;28;20108;-59
2022/03/19 23:24:24;;;;;;;16.00;11.55;;;;;;;;;;5027757;28;20026;-59
2022/03/19 23:27:03;;;;;;;21.43;14.37;;;;;;;;;;5010252;28;20048;-59
2022/03/19 23:30:10;;;;;;;19.57;13.03;;;;;;;;;;5025863;28;20082;-59
2022/03/19 23:39:07;;;;;;;16.85;12.70;;;;;;;;;;5027212;28;20048;-59
2022/03/19 23:41:54;;;;;;;12.80;11.50;;;;;;;;;;5077078;28;20101;-59
2022/03/19 23:44:32;;;;;;;19.83;12.80;;;;;;;;;;5086065;28;20040;-59